Terminal Aerodrome Forecast
Issued by NWS

Home | Current Version | Previous Version | Text Only | Print | Product List | Glossary On
Versions: 1 2 3 4 5 6 7 8 9 10 11 12 13 14 15 16 17 18 19 20 21 22 23 24 25 26 27 28 29 30 31 32
000
FTUS45 KFGZ 220539
TAFPGA
TAF
KPGA 220539Z 2206/2306 VRB05KT P6SM BKN200
     FM221800 04008KT P6SM SCT080 PROB30 2220/2223 P6SM -SHRA
      BKN080=

USA.gov is the U.S. government's official web portal to all federal, state and local government web resources and services.